Time,TemperatureF,DewpointF,PressureIn,WindDirection,WindDirectionDegrees,WindSpeedMPH,WindSpeedGustMPH,Humidity,HourlyPrecipIn,Conditions,Clouds,dailyrainin,SoftwareType,DateUTC
2013-04-15 00:00:00,41.7,32.7,29.65,NE,52,0.0,0.0,70,0.00,,---,0.00,VWS V14.01,2013-04-15 07:00:00,
2013-04-15 00:05:00,41.5,32.5,29.65,NE,52,0.0,0.0,70,0.00,,---,0.00,VWS V14.01,2013-04-15 07:05:00,
2013-04-15 00:41:00,40.6,32.0,29.65,ESE,105,0.0,0.0,71,0.00,,---,0.00,VWS V14.01,2013-04-15 07:41:00,
2013-04-15 00:42:00,40.6,32.0,29.65,ESE,105,0.0,0.0,71,0.00,,---,0.00,VWS V14.01,2013-04-15 07:42:00,
2013-04-15 00:47:00,40.6,32.0,29.65,ESE,105,0.0,0.0,71,0.00,,---,0.00,VWS V14.01,2013-04-15 07:47:00,
2013-04-15 00:48:00,40.6,32.0,29.65,ESE,105,0.0,0.0,71,0.00,,---,0.00,VWS V14.01,2013-04-15 07:48:00,
2013-04-15 00:52:00,40.6,32.0,29.65,ESE,105,0.0,0.0,71,0.00,,---,0.00,VWS V14.01,2013-04-15 07:52:00,
2013-04-15 00:57:00,40.6,32.0,29.65,ESE,105,0.0,0.0,71,0.00,,---,0.00,VWS V14.01,2013-04-15 07:57:00,
2013-04-15 01:02:00,40.6,32.0,29.65,ESE,105,0.0,0.0,71,0.00,,---,0.00,VWS V14.01,2013-04-15 08:02:00,
2013-04-15 01:07:00,40.6,32.0,29.65,ESE,105,0.0,0.0,71,0.00,,---,0.00,VWS V14.01,2013-04-15 08:07:00,
2013-04-15 01:12:00,40.6,32.0,29.65,ESE,105,0.0,0.0,71,0.00,,---,0.00,VWS V14.01,2013-04-15 08:12:00,
2013-04-15 01:17:00,40.3,31.6,29.65,ESE,105,0.0,0.0,71,0.00,,---,0.00,VWS V14.01,2013-04-15 08:17:00,
2013-04-15 01:22:00,40.5,32.2,29.65,ESE,105,0.0,0.0,72,0.00,,---,0.00,VWS V14.01,2013-04-15 08:22:00,
2013-04-15 01:27:00,40.6,32.3,29.65,ESE,105,0.0,0.0,72,0.00,,---,0.00,VWS V14.01,2013-04-15 08:27:00,
2013-04-15 01:32:00,40.8,32.5,29.65,ESE,105,0.0,0.0,72,0.00,,---,0.00,VWS V14.01,2013-04-15 08:32:00,
2013-04-15 01:35:00,40.8,32.5,29.65,ESE,105,0.0,0.0,72,0.00,,---,0.00,VWS V14.01,2013-04-15 08:35:00,
2013-04-15 01:40:00,40.6,32.3,29.65,ESE,105,0.0,0.0,72,0.00,,---,0.00,VWS V14.01,2013-04-15 08:40:00,
2013-04-15 01:45:00,40.8,32.5,29.65,ESE,105,0.0,0.0,72,0.00,,---,0.00,VWS V14.01,2013-04-15 08:45:00,
2013-04-15 01:50:00,40.8,32.5,29.65,NE,45,2.7,2.7,72,0.04,,---,0.04,VWS V14.01,2013-04-15 08:50:00,
2013-04-15 01:55:00,40.6,32.3,29.62,NE,40,0.0,0.0,72,0.04,,---,0.04,VWS V14.01,2013-04-15 08:55:00,
2013-04-15 02:00:00,40.6,32.3,29.62,NE,40,0.0,0.0,72,0.04,,---,0.04,VWS V14.01,2013-04-15 09:00:00,
2013-04-15 02:05:00,40.8,32.5,29.62,NE,40,0.0,0.0,72,0.04,,---,0.04,VWS V14.01,2013-04-15 09:05:00,
2013-04-15 02:10:00,40.6,32.3,29.65,NE,44,0.0,0.0,72,0.04,,---,0.04,VWS V14.01,2013-04-15 09:10:00,
2013-04-15 02:15:00,40.6,32.3,29.65,NE,44,0.0,0.0,72,0.04,,---,0.04,VWS V14.01,2013-04-15 09:15:00,
2013-04-15 02:20:00,40.1,31.5,29.65,ENE,58,0.0,2.2,71,0.04,,---,0.04,VWS V14.01,2013-04-15 09:20:00,
2013-04-15 02:25:00,39.6,31.0,29.65,ENE,58,0.0,0.0,71,0.04,,---,0.04,VWS V14.01,2013-04-15 09:25:00,
2013-04-15 02:30:00,39.6,31.0,29.62,ENE,57,0.0,0.0,71,0.04,,---,0.04,VWS V14.01,2013-04-15 09:30:00,
2013-04-15 02:35:00,39.2,30.6,29.62,NE,55,0.0,0.0,71,0.04,,---,0.04,VWS V14.01,2013-04-15 09:35:00,
2013-04-15 02:40:00,39.0,30.4,29.62,NE,55,0.0,0.0,71,0.04,,---,0.04,VWS V14.01,2013-04-15 09:40:00,
2013-04-15 02:45:00,38.8,30.3,29.62,NE,55,0.0,0.0,71,0.04,,---,0.04,VWS V14.01,2013-04-15 09:45:00,
2013-04-15 02:50:00,38.7,30.1,29.62,NE,55,0.0,0.0,71,0.00,,---,0.04,VWS V14.01,2013-04-15 09:50:00,
2013-04-15 02:55:00,38.5,29.9,29.62,NE,55,3.1,3.1,71,0.00,,---,0.04,VWS V14.01,2013-04-15 09:55:00,
2013-04-15 03:00:00,38.3,29.7,29.62,NE,56,2.7,2.7,71,0.00,,---,0.04,VWS V14.01,2013-04-15 10:00:00,
2013-04-15 03:05:00,38.1,29.6,29.62,NE,45,0.0,0.0,71,0.00,,---,0.04,VWS V14.01,2013-04-15 10:05:00,
2013-04-15 03:10:00,37.9,29.4,29.62,NE,39,0.0,0.0,71,0.00,,---,0.04,VWS V14.01,2013-04-15 10:10:00,
2013-04-15 03:15:00,37.9,29.4,29.62,NE,39,0.0,0.0,71,0.00,,---,0.04,VWS V14.01,2013-04-15 10:15:00,
2013-04-15 03:20:00,37.9,29.4,29.62,NE,39,0.0,0.0,71,0.00,,---,0.04,VWS V14.01,2013-04-15 10:20:00,
2013-04-15 03:25:00,38.7,30.4,29.62,ESE,108,0.0,0.0,72,0.00,,---,0.04,VWS V14.01,2013-04-15 10:25:00,
2013-04-15 03:30:00,38.7,30.8,29.62,ESE,106,0.0,0.0,73,0.00,,---,0.04,VWS V14.01,2013-04-15 10:30:00,
2013-04-15 03:35:00,38.7,30.8,29.62,ESE,105,0.0,0.0,73,0.00,,---,0.04,VWS V14.01,2013-04-15 10:35:00,
2013-04-15 03:40:00,38.7,30.8,29.62,East,91,0.0,0.0,73,0.00,,---,0.04,VWS V14.01,2013-04-15 10:40:00,
2013-04-15 03:45:00,38.3,30.8,29.62,East,89,0.0,0.0,74,0.00,,---,0.04,VWS V14.01,2013-04-15 10:45:00,
2013-04-15 03:50:00,38.3,30.8,29.62,ENE,71,0.0,0.0,74,0.00,,---,0.04,VWS V14.01,2013-04-15 10:50:00,
2013-04-15 03:55:00,38.5,30.9,29.62,ENE,71,0.0,0.0,74,0.00,,---,0.04,VWS V14.01,2013-04-15 10:55:00,
2013-04-15 04:00:00,38.5,30.9,29.62,ENE,71,0.0,0.0,74,0.00,,---,0.04,VWS V14.01,2013-04-15 11:00:00,
2013-04-15 04:05:00,38.5,30.9,29.62,ENE,71,0.0,0.0,74,0.00,,---,0.04,VWS V14.01,2013-04-15 11:05:00,
2013-04-15 04:10:00,38.5,30.9,29.62,ESE,105,0.0,0.0,74,0.00,,---,0.04,VWS V14.01,2013-04-15 11:10:00,
2013-04-15 04:15:00,38.3,30.8,29.62,ESE,105,0.0,0.0,74,0.00,,---,0.04,VWS V14.01,2013-04-15 11:15:00,
2013-04-15 04:20:00,38.5,31.3,29.62,ESE,105,0.0,0.0,75,0.00,,---,0.04,VWS V14.01,2013-04-15 11:20:00,
2013-04-15 04:25:00,38.1,30.9,29.62,ESE,105,0.0,0.0,75,0.00,,---,0.04,VWS V14.01,2013-04-15 11:25:00,
2013-04-15 04:30:00,38.1,30.9,29.65,ESE,105,0.0,0.0,75,0.00,,---,0.04,VWS V14.01,2013-04-15 11:30:00,
2013-04-15 04:35:00,38.3,31.1,29.65,ESE,105,0.0,0.0,75,0.00,,---,0.04,VWS V14.01,2013-04-15 11:35:00,
2013-04-15 04:40:00,38.5,31.3,29.65,East,95,0.0,0.0,75,0.00,,---,0.04,VWS V14.01,2013-04-15 11:40:00,
2013-04-15 04:45:00,38.7,31.4,29.65,East,95,0.0,0.0,75,0.00,,---,0.04,VWS V14.01,2013-04-15 11:45:00,
2013-04-15 04:50:00,38.8,31.6,29.65,East,95,0.0,0.0,75,0.00,,---,0.04,VWS V14.01,2013-04-15 11:50:00,
2013-04-15 04:55:00,38.8,31.6,29.65,East,82,0.0,0.0,75,0.00,,---,0.04,VWS V14.01,2013-04-15 11:55:00,
2013-04-15 05:00:00,38.7,31.4,29.65,NE,40,0.0,0.0,75,0.00,,---,0.04,VWS V14.01,2013-04-15 12:00:00,
2013-04-15 05:05:00,38.7,31.4,29.65,NE,40,0.0,0.0,75,0.00,,---,0.04,VWS V14.01,2013-04-15 12:05:00,
2013-04-15 05:10:00,38.8,31.6,29.65,NE,37,0.0,0.0,75,0.00,,---,0.04,VWS V14.01,2013-04-15 12:10:00,
2013-04-15 05:15:00,38.8,31.6,29.65,NE,37,0.0,0.0,75,0.00,,---,0.04,VWS V14.01,2013-04-15 12:15:00,
2013-04-15 05:20:00,38.7,31.4,29.65,NE,37,0.0,0.0,75,0.00,,---,0.04,VWS V14.01,2013-04-15 12:20:00,
2013-04-15 05:26:00,38.7,31.4,29.65,NE,37,0.0,0.0,75,0.00,,---,0.04,VWS V14.01,2013-04-15 12:26:00,
2013-04-15 05:31:00,38.7,31.4,29.65,NE,37,0.0,0.0,75,0.00,,---,0.04,VWS V14.01,2013-04-15 12:31:00,
2013-04-15 05:36:00,38.1,30.9,29.65,NE,37,0.0,0.0,75,0.00,,---,0.04,VWS V14.01,2013-04-15 12:36:00,
2013-04-15 05:41:00,38.3,31.1,29.65,NE,46,0.0,0.0,75,0.00,,---,0.04,VWS V14.01,2013-04-15 12:41:00,
2013-04-15 05:46:00,38.3,31.1,29.65,NE,47,0.0,0.0,75,0.00,,---,0.04,VWS V14.01,2013-04-15 12:46:00,
2013-04-15 05:51:00,38.5,31.3,29.65,NE,43,0.0,0.0,75,0.00,,---,0.04,VWS V14.01,2013-04-15 12:51:00,
2013-04-15 05:56:00,38.5,31.3,29.65,NE,51,0.0,0.0,75,0.00,,---,0.04,VWS V14.01,2013-04-15 12:56:00,
2013-04-15 06:01:00,38.5,31.3,29.62,NE,51,0.0,0.0,75,0.00,,---,0.04,VWS V14.01,2013-04-15 13:01:00,
2013-04-15 06:06:00,38.7,31.4,29.62,NE,51,0.0,0.0,75,0.00,,---,0.04,VWS V14.01,2013-04-15 13:06:00,
2013-04-15 06:11:00,38.7,31.4,29.62,NE,51,0.0,0.0,75,0.00,,---,0.04,VWS V14.01,2013-04-15 13:11:00,
2013-04-15 06:16:00,38.7,31.4,29.62,NE,51,0.0,0.0,75,0.00,,---,0.04,VWS V14.01,2013-04-15 13:16:00,
2013-04-15 06:21:00,38.7,31.4,29.62,NE,51,0.0,0.0,75,0.00,,---,0.04,VWS V14.01,2013-04-15 13:21:00,
2013-04-15 06:26:00,38.7,31.4,29.65,NE,51,0.0,0.0,75,0.00,,---,0.04,VWS V14.01,2013-04-15 13:26:00,
2013-04-15 06:31:00,38.5,31.3,29.65,NE,51,0.0,0.0,75,0.00,,---,0.04,VWS V14.01,2013-04-15 13:31:00,
2013-04-15 06:36:00,38.1,30.9,29.65,NE,51,0.0,0.0,75,0.00,,---,0.04,VWS V14.01,2013-04-15 13:36:00,
2013-04-15 06:41:00,38.1,30.9,29.65,NE,51,0.0,0.0,75,0.00,,---,0.04,VWS V14.01,2013-04-15 13:41:00,
2013-04-15 06:46:00,38.3,31.1,29.65,NE,51,0.0,0.0,75,0.00,,---,0.04,VWS V14.01,2013-04-15 13:46:00,
2013-04-15 06:51:00,38.3,31.1,29.65,NE,51,0.0,0.0,75,0.00,,---,0.04,VWS V14.01,2013-04-15 13:51:00,
2013-04-15 06:56:00,38.1,30.9,29.65,East,100,0.0,0.0,75,0.00,,---,0.04,VWS V14.01,2013-04-15 13:56:00,
2013-04-15 07:02:00,37.9,30.7,29.65,East,99,0.0,0.0,75,0.00,,---,0.04,VWS V14.01,2013-04-15 14:02:00,
2013-04-15 07:07:00,37.9,30.7,29.65,East,100,0.0,0.0,75,0.00,,---,0.04,VWS V14.01,2013-04-15 14:07:00,
2013-04-15 07:12:00,37.8,30.6,29.65,East,100,0.0,0.0,75,0.00,,---,0.04,VWS V14.01,2013-04-15 14:12:00,
2013-04-15 07:17:00,37.8,30.6,29.65,ESE,105,0.0,0.0,75,0.00,,---,0.04,VWS V14.01,2013-04-15 14:17:00,
2013-04-15 07:22:00,40.3,33.0,29.65,ESE,108,0.0,0.0,75,0.00,,---,0.04,VWS V14.01,2013-04-15 14:22:00,
2013-04-15 07:27:00,40.3,33.0,29.65,ESE,108,0.0,0.0,75,0.00,,---,0.04,VWS V14.01,2013-04-15 14:27:00,
2013-04-15 07:32:00,39.9,32.7,29.65,ESE,108,0.0,0.0,75,0.00,,---,0.04,VWS V14.01,2013-04-15 14:32:00,
2013-04-15 07:37:00,42.1,34.7,29.65,ESE,108,0.0,0.0,75,0.00,,---,0.04,VWS V14.01,2013-04-15 14:37:00,
2013-04-15 07:42:00,42.1,34.7,29.65,ESE,108,0.0,0.0,75,0.00,,---,0.04,VWS V14.01,2013-04-15 14:42:00,
2013-04-15 07:47:00,44.8,36.7,29.65,ESE,108,0.0,0.0,73,0.00,,---,0.04,VWS V14.01,2013-04-15 14:47:00,
2013-04-15 07:53:00,44.8,36.7,29.65,NE,50,0.0,0.0,73,0.00,,---,0.04,VWS V14.01,2013-04-15 14:53:00,
2013-04-15 07:58:00,44.8,36.7,29.65,NE,50,0.0,0.0,73,0.00,,---,0.04,VWS V14.01,2013-04-15 14:58:00,
2013-04-15 08:03:00,54.5,44.9,29.65,NE,46,3.1,3.1,70,0.00,,---,0.04,VWS V14.01,2013-04-15 15:03:00,
2013-04-15 08:08:00,56.5,46.1,29.65,NE,43,3.6,3.6,68,0.00,,---,0.04,VWS V14.01,2013-04-15 15:08:00,
2013-04-15 08:13:00,60.4,46.1,29.65,NE,42,3.1,3.6,59,0.00,,---,0.04,VWS V14.01,2013-04-15 15:13:00,
2013-04-15 08:18:00,62.6,42.7,29.65,NE,36,3.1,3.1,48,0.00,,---,0.04,VWS V14.01,2013-04-15 15:18:00,
2013-04-15 08:23:00,62.6,42.7,29.65,East,82,2.7,3.1,48,0.00,,---,0.04,VWS V14.01,2013-04-15 15:23:00,
2013-04-15 08:28:00,62.6,42.7,29.65,NE,46,3.1,3.1,48,0.00,,---,0.04,VWS V14.01,2013-04-15 15:28:00,
2013-04-15 08:33:00,62.6,42.7,29.65,NNE,22,3.1,3.1,48,0.00,,---,0.04,VWS V14.01,2013-04-15 15:33:00,
2013-04-15 08:38:00,55.9,26.5,29.65,NNE,22,3.1,3.1,32,0.00,,---,0.04,VWS V14.01,2013-04-15 15:38:00,
2013-04-15 08:43:00,59.9,28.4,29.65,NE,36,3.1,3.1,30,0.00,,---,0.04,VWS V14.01,2013-04-15 15:43:00,
2013-04-15 08:48:00,59.9,28.4,29.65,ESE,109,2.7,2.7,30,0.00,,---,0.04,VWS V14.01,2013-04-15 15:48:00,
2013-04-15 08:53:00,56.7,9.6,29.65,East,79,0.0,0.0,15,0.00,,---,0.04,VWS V14.01,2013-04-15 15:53:00,
2013-04-15 08:58:00,54.9,8.1,29.68,East,98,0.0,0.0,15,0.00,,---,0.04,VWS V14.01,2013-04-15 15:58:00,
2013-04-15 09:03:00,55.9,9.0,29.68,East,80,4.0,4.0,15,0.00,,---,0.04,VWS V14.01,2013-04-15 16:03:00,
2013-04-15 09:08:00,55.9,9.0,29.68,NE,43,0.0,0.0,15,0.00,,---,0.04,VWS V14.01,2013-04-15 16:08:00,
2013-04-15 09:13:00,49.6,5.3,29.68,NE,43,5.4,5.4,16,0.00,,---,0.04,VWS V14.01,2013-04-15 16:13:00,
2013-04-15 09:19:00,48.4,8.0,29.68,NE,41,3.6,3.6,19,0.00,,---,0.04,VWS V14.01,2013-04-15 16:19:00,
2013-04-15 09:24:00,48.4,8.0,29.68,NE,41,3.6,3.6,19,0.00,,---,0.04,VWS V14.01,2013-04-15 16:24:00,
2013-04-15 09:29:00,47.8,15.5,29.68,NNE,20,5.8,5.8,27,0.00,,---,0.04,VWS V14.01,2013-04-15 16:29:00,
2013-04-15 09:34:00,47.8,15.5,29.68,North,357,4.0,4.0,27,0.00,,---,0.04,VWS V14.01,2013-04-15 16:34:00,
2013-04-15 09:39:00,47.5,16.0,29.68,North,11,4.9,4.9,28,0.00,,---,0.04,VWS V14.01,2013-04-15 16:39:00,
2013-04-15 09:44:00,47.3,16.7,29.68,NNE,22,5.4,5.4,29,0.00,,---,0.04,VWS V14.01,2013-04-15 16:44:00,
2013-04-15 09:49:00,47.3,16.7,29.68,NNE,16,5.4,5.4,29,0.00,,---,0.04,VWS V14.01,2013-04-15 16:49:00,
2013-04-15 09:54:00,48.2,16.6,29.68,NNE,25,3.1,5.4,28,0.00,,---,0.04,VWS V14.01,2013-04-15 16:54:00,
2013-04-15 09:59:00,48.7,16.3,29.68,NNE,18,2.7,3.1,27,0.00,,---,0.04,VWS V14.01,2013-04-15 16:59:00,
2013-04-15 10:04:00,51.3,18.4,29.68,NNE,18,2.7,2.7,27,0.00,,---,0.04,VWS V14.01,2013-04-15 17:04:00,
2013-04-15 10:09:00,56.5,12.2,29.68,NNE,20,3.6,3.6,17,0.00,,---,0.04,VWS V14.01,2013-04-15 17:09:00,
2013-04-15 10:14:00,56.8,9.7,29.68,ENE,63,4.9,4.9,15,0.00,,---,0.04,VWS V14.01,2013-04-15 17:14:00,
2013-04-15 10:19:00,53.6,7.1,29.68,NNE,18,4.0,4.0,15,0.00,,---,0.04,VWS V14.01,2013-04-15 17:19:00,
2013-04-15 10:21:00,54.5,7.8,29.68,NE,47,5.4,5.4,15,0.00,,---,0.04,VWS V14.01,2013-04-15 17:21:00,
2013-04-15 10:25:00,54.5,7.8,29.68,NE,46,0.0,0.0,15,0.00,,---,0.04,VWS V14.01,2013-04-15 17:25:00,
2013-04-15 10:30:00,60.1,7.3,29.68,ENE,73,5.4,5.4,12,0.00,,---,0.04,VWS V14.01,2013-04-15 17:30:00,
2013-04-15 10:35:00,50.9,10.1,29.68,ESE,109,4.0,4.0,19,0.00,,---,0.04,VWS V14.01,2013-04-15 17:35:00,
2013-04-15 10:40:00,58.3,9.3,29.68,ESE,109,4.0,4.0,14,0.00,,---,0.04,VWS V14.01,2013-04-15 17:40:00,
2013-04-15 10:45:00,50.0,5.6,29.68,NE,45,4.0,4.0,16,0.00,,---,0.04,VWS V14.01,2013-04-15 17:45:00,
2013-04-15 10:50:00,51.4,6.8,29.68,NE,51,3.6,4.9,16,0.00,,---,0.04,VWS V14.01,2013-04-15 17:50:00,
2013-04-15 10:55:00,49.5,5.2,29.68,NE,51,3.6,3.6,16,0.00,,---,0.04,VWS V14.01,2013-04-15 17:55:00,
2013-04-15 11:00:00,49.5,5.2,29.68,East,101,4.9,4.9,16,0.00,,---,0.04,VWS V14.01,2013-04-15 18:00:00,
2013-04-15 11:05:00,49.8,5.4,29.68,NE,51,5.4,5.4,16,0.00,,---,0.04,VWS V14.01,2013-04-15 18:05:00,
2013-04-15 11:10:00,53.8,4.1,29.68,NE,51,5.4,5.4,13,0.00,,---,0.04,VWS V14.01,2013-04-15 18:10:00,
2013-04-15 11:15:00,49.3,5.0,29.68,ESE,113,8.3,8.3,16,0.00,,---,0.04,VWS V14.01,2013-04-15 18:15:00,
2013-04-15 11:20:00,48.4,4.3,29.68,SE,146,6.7,6.7,16,0.00,,---,0.04,VWS V14.01,2013-04-15 18:20:00,
2013-04-15 11:25:00,48.9,4.7,29.68,NE,46,11.0,11.0,16,0.00,,---,0.04,VWS V14.01,2013-04-15 18:25:00,
2013-04-15 11:29:00,55.8,3.9,29.68,NNE,25,5.4,11.0,12,0.00,,---,0.04,VWS V14.01,2013-04-15 18:29:00,
2013-04-15 11:34:00,55.8,3.9,29.68,NNE,33,5.4,5.4,12,0.00,,---,0.04,VWS V14.01,2013-04-15 18:34:00,
2013-04-15 11:39:00,52.0,2.7,29.68,NE,43,4.9,4.9,13,0.00,,---,0.04,VWS V14.01,2013-04-15 18:39:00,
2013-04-15 11:44:00,51.6,4.0,29.68,NE,35,3.1,3.1,14,0.00,,---,0.04,VWS V14.01,2013-04-15 18:44:00,
2013-04-15 11:49:00,57.4,5.2,29.68,ENE,68,4.0,4.0,12,0.00,,---,0.04,VWS V14.01,2013-04-15 18:49:00,
2013-04-15 11:54:00,49.3,2.1,29.68,ESE,108,8.1,8.1,14,0.00,,---,0.04,VWS V14.01,2013-04-15 18:54:00,
2013-04-15 11:59:00,49.3,2.1,29.68,SE,135,4.9,5.8,14,0.00,,---,0.04,VWS V14.01,2013-04-15 18:59:00,
2013-04-15 12:04:00,49.5,5.2,29.68,NE,36,5.8,5.8,16,0.00,,---,0.04,VWS V14.01,2013-04-15 19:04:00,
2013-04-15 12:09:00,52.3,7.5,29.68,NE,42,7.6,7.6,16,0.00,,---,0.04,VWS V14.01,2013-04-15 19:09:00,
2013-04-15 12:14:00,58.8,6.3,29.68,ESE,114,4.0,4.0,12,0.00,,---,0.04,VWS V14.01,2013-04-15 19:14:00,
2013-04-15 12:19:00,58.8,6.3,29.68,ESE,104,8.1,8.1,12,0.00,,---,0.04,VWS V14.01,2013-04-15 19:19:00,
2013-04-15 12:24:00,58.8,6.3,29.68,SE,143,2.7,2.7,12,0.00,,---,0.04,VWS V14.01,2013-04-15 19:24:00,
2013-04-15 12:29:00,50.0,2.7,29.68,East,97,8.3,8.7,14,0.00,,---,0.04,VWS V14.01,2013-04-15 19:29:00,
2013-04-15 12:34:00,56.3,4.4,29.68,NNE,28,3.1,3.1,12,0.00,,---,0.04,VWS V14.01,2013-04-15 19:34:00,
2013-04-15 12:39:00,56.3,4.4,29.68,East,86,3.6,3.6,12,0.00,,---,0.04,VWS V14.01,2013-04-15 19:39:00,
2013-04-15 12:44:00,55.4,3.7,29.68,NE,52,7.6,7.6,12,0.00,,---,0.04,VWS V14.01,2013-04-15 19:44:00,
2013-04-15 12:49:00,55.4,3.7,29.68,NNE,24,4.0,4.0,12,0.00,,---,0.04,VWS V14.01,2013-04-15 19:49:00,
2013-04-15 12:55:00,59.4,6.8,29.68,NE,56,6.3,6.3,12,0.00,,---,0.04,VWS V14.01,2013-04-15 19:55:00,
2013-04-15 12:57:00,59.4,6.8,29.68,ENE,60,5.8,6.3,12,0.00,,---,0.04,VWS V14.01,2013-04-15 19:57:00,
2013-04-15 12:58:00,59.4,6.8,29.68,NE,37,5.4,6.3,12,0.00,,---,0.04,VWS V14.01,2013-04-15 19:58:00,
2013-04-15 13:01:00,60.8,6.0,29.68,NE,53,4.9,4.9,11,0.00,,---,0.04,VWS V14.01,2013-04-15 20:01:00,
2013-04-15 13:02:00,60.8,6.0,29.68,NE,44,5.4,5.4,11,0.00,,---,0.04,VWS V14.01,2013-04-15 20:02:00,
2013-04-15 13:07:00,60.8,6.0,29.68,SE,132,2.7,2.7,11,0.00,,---,0.04,VWS V14.01,2013-04-15 20:07:00,
2013-04-15 13:12:00,58.8,6.3,29.68,NE,54,8.3,8.3,12,0.00,,---,0.04,VWS V14.01,2013-04-15 20:12:00,
2013-04-15 13:17:00,60.4,7.6,29.68,NNE,15,4.9,4.9,12,0.00,,---,0.04,VWS V14.01,2013-04-15 20:17:00,
2013-04-15 13:22:00,52.0,2.7,29.68,East,97,3.1,3.1,13,0.00,,---,0.04,VWS V14.01,2013-04-15 20:22:00,
2013-04-15 13:27:00,52.0,2.7,29.68,East,96,10.5,11.9,13,0.00,,---,0.04,VWS V14.01,2013-04-15 20:27:00,
2013-04-15 13:32:00,47.5,0.7,29.68,ESE,111,8.1,8.1,14,0.00,,---,0.04,VWS V14.01,2013-04-15 20:32:00,
2013-04-15 13:37:00,48.0,1.1,29.68,ESE,109,4.9,4.9,14,0.00,,---,0.04,VWS V14.01,2013-04-15 20:37:00,
2013-04-15 13:42:00,48.9,1.8,29.68,NNE,29,3.6,4.9,14,0.00,,---,0.04,VWS V14.01,2013-04-15 20:42:00,
2013-04-15 13:47:00,51.1,3.6,29.68,East,91,4.0,4.0,14,0.00,,---,0.04,VWS V14.01,2013-04-15 20:47:00,
2013-04-15 13:52:00,51.1,3.6,29.68,NNE,22,6.3,6.3,14,0.00,,---,0.04,VWS V14.01,2013-04-15 20:52:00,
2013-04-15 13:57:00,61.5,6.5,29.68,NE,37,7.6,7.6,11,0.00,,---,0.04,VWS V14.01,2013-04-15 20:57:00,
2013-04-15 14:02:00,63.7,8.2,29.68,NNE,32,4.0,4.9,11,0.00,,---,0.04,VWS V14.01,2013-04-15 21:02:00,
2013-04-15 14:07:00,63.7,8.2,29.68,NE,49,5.8,5.8,11,0.00,,---,0.04,VWS V14.01,2013-04-15 21:07:00,
2013-04-15 14:12:00,57.9,5.6,29.68,NE,37,7.6,7.6,12,0.00,,---,0.04,VWS V14.01,2013-04-15 21:12:00,
2013-04-15 14:17:00,58.6,6.2,29.68,North,1,4.0,5.8,12,0.00,,---,0.04,VWS V14.01,2013-04-15 21:17:00,
2013-04-15 14:22:00,56.3,4.4,29.68,ESE,112,6.7,6.7,12,0.00,,---,0.04,VWS V14.01,2013-04-15 21:22:00,
2013-04-15 14:27:00,54.0,4.2,29.71,NE,37,8.3,8.3,13,0.00,,---,0.04,VWS V14.01,2013-04-15 21:27:00,
2013-04-15 14:32:00,54.0,4.2,29.71,NE,42,8.1,8.1,13,0.00,,---,0.04,VWS V14.01,2013-04-15 21:32:00,
2013-04-15 14:37:00,55.9,4.1,29.71,ESE,110,6.3,6.3,12,0.00,,---,0.04,VWS V14.01,2013-04-15 21:37:00,
2013-04-15 14:42:00,53.6,4.0,29.71,NE,48,7.6,7.6,13,0.00,,---,0.04,VWS V14.01,2013-04-15 21:42:00,
2013-04-15 14:47:00,52.2,2.8,29.71,ESE,105,4.0,4.0,13,0.00,,---,0.04,VWS V14.01,2013-04-15 21:47:00,
2013-04-15 14:52:00,55.9,4.1,29.71,NE,36,5.4,5.4,12,0.00,,---,0.04,VWS V14.01,2013-04-15 21:52:00,
2013-04-15 14:57:00,56.5,4.5,29.71,NE,48,5.4,5.4,12,0.00,,---,0.04,VWS V14.01,2013-04-15 21:57:00,
2013-04-15 15:02:00,57.2,5.1,29.71,ESE,103,3.1,3.1,12,0.00,,---,0.04,VWS V14.01,2013-04-15 22:02:00,
2013-04-15 15:07:00,58.8,6.3,29.71,NE,42,8.3,8.3,12,0.00,,---,0.04,VWS V14.01,2013-04-15 22:07:00,
2013-04-15 15:12:00,57.0,4.9,29.71,NE,44,5.4,8.7,12,0.00,,---,0.04,VWS V14.01,2013-04-15 22:12:00,
2013-04-15 15:17:00,60.4,7.6,29.71,NNE,31,6.3,8.3,12,0.00,,---,0.04,VWS V14.01,2013-04-15 22:17:00,
2013-04-15 15:22:00,62.2,7.1,29.71,NE,51,12.8,12.8,11,0.00,,---,0.04,VWS V14.01,2013-04-15 22:22:00,
2013-04-15 15:27:00,62.2,7.1,29.71,East,101,4.9,4.9,11,0.00,,---,0.04,VWS V14.01,2013-04-15 22:27:00,
2013-04-15 15:32:00,59.2,6.6,29.71,NE,38,5.4,5.4,12,0.00,,---,0.04,VWS V14.01,2013-04-15 22:32:00,
2013-04-15 15:37:00,59.4,6.8,29.71,NNE,30,5.8,5.8,12,0.00,,---,0.04,VWS V14.01,2013-04-15 22:37:00,
2013-04-15 15:42:00,59.4,6.8,29.71,ESE,104,8.1,8.1,12,0.00,,---,0.04,VWS V14.01,2013-04-15 22:42:00,
2013-04-15 15:47:00,52.2,2.8,29.71,NNE,24,2.2,6.3,13,0.00,,---,0.04,VWS V14.01,2013-04-15 22:47:00,
2013-04-15 15:52:00,52.9,3.4,29.71,SE,124,3.6,3.6,13,0.00,,---,0.04,VWS V14.01,2013-04-15 22:52:00,
2013-04-15 20:25:00,46.2,20.1,29.77,NE,49,7.6,8.7,35,0.00,,---,0.04,VWS V14.01,2013-04-16 03:25:00,
2013-04-15 20:30:00,46.2,20.1,29.77,NNE,24,6.3,6.3,35,0.00,,---,0.04,VWS V14.01,2013-04-16 03:30:00,
2013-04-15 20:35:00,46.2,20.1,29.77,NE,35,5.4,5.4,35,0.00,,---,0.04,VWS V14.01,2013-04-16 03:35:00,
2013-04-15 20:40:00,46.2,20.1,29.77,NE,35,5.8,6.3,35,0.00,,---,0.04,VWS V14.01,2013-04-16 03:40:00,
2013-04-15 20:45:00,46.2,20.1,29.77,ENE,57,6.3,6.3,35,0.00,,---,0.04,VWS V14.01,2013-04-16 03:45:00,
2013-04-15 20:50:00,46.0,21.2,29.77,NE,44,5.4,6.3,37,0.00,,---,0.04,VWS V14.01,2013-04-16 03:50:00,
2013-04-15 20:55:00,45.9,21.7,29.80,NE,49,5.4,5.4,38,0.00,,---,0.04,VWS V14.01,2013-04-16 03:55:00,
2013-04-15 21:00:00,45.9,21.7,29.80,NE,44,5.4,6.3,38,0.00,,---,0.04,VWS V14.01,2013-04-16 04:00:00,
2013-04-15 21:05:00,45.7,21.5,29.80,NE,43,5.4,5.4,38,0.00,,---,0.04,VWS V14.01,2013-04-16 04:05:00,
2013-04-15 21:10:00,45.7,21.5,29.80,NE,50,3.6,3.6,38,0.00,,---,0.04,VWS V14.01,2013-04-16 04:10:00,
2013-04-15 21:15:00,45.5,22.0,29.80,NE,56,3.6,3.6,39,0.00,,---,0.04,VWS V14.01,2013-04-16 04:15:00,
2013-04-15 21:20:00,45.5,22.0,29.80,NE,43,8.3,8.3,39,0.00,,---,0.04,VWS V14.01,2013-04-16 04:20:00,
2013-04-15 21:25:00,45.5,22.0,29.80,NE,44,5.8,5.8,39,0.00,,---,0.04,VWS V14.01,2013-04-16 04:25:00,
2013-04-15 21:30:00,45.3,21.8,29.80,NE,43,7.6,7.6,39,0.00,,---,0.04,VWS V14.01,2013-04-16 04:30:00,
2013-04-15 21:35:00,45.1,21.7,29.80,NE,34,5.8,5.8,39,0.00,,---,0.04,VWS V14.01,2013-04-16 04:35:00,
2013-04-15 21:40:00,45.0,22.1,29.80,NE,41,6.7,6.7,40,0.00,,---,0.04,VWS V14.01,2013-04-16 04:40:00,
2013-04-15 21:45:00,44.8,23.1,29.83,ENE,58,8.3,8.3,42,0.00,,---,0.04,VWS V14.01,2013-04-16 04:45:00,
2013-04-15 21:50:00,44.6,24.0,29.83,NE,54,6.3,6.3,44,0.00,,---,0.04,VWS V14.01,2013-04-16 04:50:00,
2013-04-15 21:55:00,44.2,24.3,29.83,NE,49,7.6,7.6,45,0.00,,---,0.04,VWS V14.01,2013-04-16 04:55:00,
2013-04-15 22:00:00,43.9,25.5,29.83,NE,49,6.3,6.3,48,0.00,,---,0.04,VWS V14.01,2013-04-16 05:00:00,
2013-04-15 22:05:00,43.3,25.0,29.83,NNE,19,3.1,3.1,48,0.00,,---,0.04,VWS V14.01,2013-04-16 05:05:00,
2013-04-15 22:10:00,42.8,24.5,29.83,East,80,3.6,3.6,48,0.00,,---,0.04,VWS V14.01,2013-04-16 05:10:00,
2013-04-15 22:15:00,42.6,24.8,29.83,NNE,23,4.0,4.0,49,0.00,,---,0.04,VWS V14.01,2013-04-16 05:15:00,
2013-04-15 22:20:00,42.4,24.6,29.83,ENE,63,2.2,2.2,49,0.00,,---,0.04,VWS V14.01,2013-04-16 05:20:00,
2013-04-15 22:25:00,42.8,25.0,29.83,NNE,21,3.1,3.1,49,0.00,,---,0.04,VWS V14.01,2013-04-16 05:25:00,
2013-04-15 22:30:00,42.8,25.0,29.83,NNE,21,0.0,0.0,49,0.00,,---,0.04,VWS V14.01,2013-04-16 05:30:00,
2013-04-15 22:35:00,42.4,24.6,29.83,NNE,20,0.0,0.0,49,0.00,,---,0.04,VWS V14.01,2013-04-16 05:35:00,
2013-04-15 22:40:00,42.1,24.3,29.83,NNE,22,0.0,0.0,49,0.00,,---,0.04,VWS V14.01,2013-04-16 05:40:00,
2013-04-15 22:45:00,41.9,24.1,29.83,NE,40,0.0,0.0,49,0.00,,---,0.04,VWS V14.01,2013-04-16 05:45:00,
2013-04-15 22:50:00,41.4,23.6,29.83,NE,39,3.6,3.6,49,0.00,,---,0.04,VWS V14.01,2013-04-16 05:50:00,
2013-04-15 22:55:00,41.2,23.5,29.83,NE,45,3.6,3.6,49,0.00,,---,0.04,VWS V14.01,2013-04-16 05:55:00,
2013-04-15 23:00:00,41.0,23.8,29.83,NE,54,3.1,3.1,50,0.00,,---,0.04,VWS V14.01,2013-04-16 06:00:00,
2013-04-15 23:05:00,40.8,24.1,29.83,NE,41,2.2,2.2,51,0.00,,---,0.04,VWS V14.01,2013-04-16 06:05:00,
2013-04-15 23:10:00,40.8,24.1,29.83,NE,47,3.6,3.6,51,0.00,,---,0.04,VWS V14.01,2013-04-16 06:10:00,
2013-04-15 23:15:00,41.2,24.4,29.83,NE,43,0.0,0.0,51,0.00,,---,0.04,VWS V14.01,2013-04-16 06:15:00,
2013-04-15 23:20:00,41.2,24.4,29.83,East,82,4.0,4.0,51,0.00,,---,0.04,VWS V14.01,2013-04-16 06:20:00,
2013-04-15 23:25:00,41.4,25.1,29.83,NE,49,3.6,3.6,52,0.00,,---,0.04,VWS V14.01,2013-04-16 06:25:00,
2013-04-15 23:30:00,41.4,25.1,29.83,East,99,0.0,0.0,52,0.00,,---,0.04,VWS V14.01,2013-04-16 06:30:00,
2013-04-15 23:35:00,41.9,26.0,29.83,ESE,105,5.4,5.4,53,0.00,,---,0.04,VWS V14.01,2013-04-16 06:35:00,
2013-04-15 23:40:00,40.6,25.3,29.83,SE,132,0.0,0.0,54,0.00,,---,0.04,VWS V14.01,2013-04-16 06:40:00,
2013-04-15 23:45:00,40.6,25.8,29.83,SSE,150,0.0,0.0,55,0.00,,---,0.04,VWS V14.01,2013-04-16 06:45:00,
2013-04-15 23:50:00,40.6,26.6,29.83,SE,141,0.0,0.0,57,0.00,,---,0.04,VWS V14.01,2013-04-16 06:50:00,
2013-04-15 23:55:00,40.8,27.6,29.83,ESE,117,2.7,3.1,59,0.00,,---,0.04,VWS V14.01,2013-04-16 06:55:00,